createdAt,value
2022-10-28T00:01:11.415Z,19.45
2022-10-28T00:03:43.252Z,19.42
2022-10-28T00:06:12.879Z,19.39
2022-10-28T00:08:39.975Z,19.37
2022-10-28T00:11:28.035Z,19.34
2022-10-28T00:13:58.412Z,19.31
2022-10-28T00:16:30.666Z,19.29
2022-10-28T00:18:59.460Z,19.27
2022-10-28T00:21:33.881Z,19.25
2022-10-28T00:24:00.320Z,19.22
2022-10-28T00:26:29.256Z,19.20
2022-10-28T00:29:01.674Z,19.19
2022-10-28T00:31:29.394Z,19.17
2022-10-28T00:33:58.011Z,19.17
2022-10-28T00:36:31.998Z,19.17
2022-10-28T00:38:59.370Z,19.18
2022-10-28T00:41:34.695Z,19.19
2022-10-28T00:44:22.471Z,19.20
2022-10-28T00:46:53.160Z,19.21
2022-10-28T00:49:27.600Z,19.22
2022-10-28T00:51:59.355Z,19.24
2022-10-28T00:54:26.985Z,19.23
2022-10-28T00:56:56.735Z,19.24
2022-10-28T00:59:26.795Z,19.25
2022-10-28T01:01:53.801Z,19.25
2022-10-28T01:04:21.609Z,19.27
2022-10-28T01:06:48.374Z,19.27
2022-10-28T01:09:14.766Z,19.28
2022-10-28T01:12:13.211Z,19.30
2022-10-28T01:15:07.527Z,19.32
2022-10-28T01:17:55.034Z,19.32
2022-10-28T01:20:27.525Z,19.32
2022-10-28T01:23:22.819Z,19.30
2022-10-28T01:25:58.868Z,19.28
2022-10-28T01:28:46.883Z,19.28
2022-10-28T01:31:16.088Z,19.25
2022-10-28T01:33:50.108Z,19.25
2022-10-28T01:36:23.785Z,19.23
2022-10-28T01:38:59.817Z,19.23
2022-10-28T01:41:33.594Z,19.21
2022-10-28T01:44:14.459Z,19.22
2022-10-28T01:46:47.818Z,19.20
2022-10-28T01:49:23.072Z,19.21
2022-10-28T01:51:55.146Z,19.20
2022-10-28T01:54:27.033Z,19.19
2022-10-28T01:56:55.373Z,19.18
2022-10-28T01:59:26.825Z,19.17
2022-10-28T02:01:54.387Z,19.14
2022-10-28T02:04:20.943Z,19.11
2022-10-28T02:06:52.288Z,19.10
2022-10-28T02:09:24.636Z,19.07
2022-10-28T02:12:20.587Z,19.05
2022-10-28T02:15:12.811Z,19.04
2022-10-28T02:17:42.094Z,19.00
2022-10-28T02:20:29.605Z,18.98
2022-10-28T02:23:24.245Z,18.97
2022-10-28T02:26:14.874Z,18.96
2022-10-28T02:28:53.061Z,18.95
2022-10-28T02:31:46.025Z,18.94
2022-10-28T02:34:17.755Z,18.94
2022-10-28T02:36:48.691Z,18.93
2022-10-28T02:39:18.839Z,18.92
2022-10-28T02:41:51.976Z,18.92
2022-10-28T02:44:23.145Z,18.91
2022-10-28T02:46:51.279Z,18.88
2022-10-28T02:49:17.738Z,18.86
2022-10-28T02:51:48.730Z,18.84
2022-10-28T02:54:19.235Z,18.82
2022-10-28T02:56:59.387Z,18.80
2022-10-28T02:59:25.771Z,18.76
2022-10-28T03:01:52.487Z,18.73
2022-10-28T03:04:18.929Z,18.70
2022-10-28T03:06:45.261Z,18.68
2022-10-28T03:09:11.639Z,18.64
2022-10-28T03:11:37.963Z,18.61
2022-10-28T03:14:04.317Z,18.60
2022-10-28T03:16:30.833Z,18.57
2022-10-28T03:18:57.306Z,18.54
2022-10-28T03:21:23.777Z,18.52
2022-10-28T03:23:50.101Z,18.49
2022-10-28T03:26:16.576Z,18.47
2022-10-28T03:28:42.917Z,18.46
2022-10-28T03:31:09.311Z,18.43
2022-10-28T03:33:35.831Z,18.40
2022-10-28T03:36:02.168Z,18.39
2022-10-28T03:38:28.580Z,18.39
2022-10-28T03:40:55.018Z,18.37
2022-10-28T03:43:21.345Z,18.35
2022-10-28T03:45:47.939Z,18.34
2022-10-28T03:48:14.346Z,18.33
2022-10-28T03:50:40.751Z,18.31
2022-10-28T03:53:07.136Z,18.30
2022-10-28T03:55:33.483Z,18.26
2022-10-28T03:58:03.417Z,18.27
2022-10-28T04:00:30.381Z,18.24
2022-10-28T04:02:57.056Z,18.23
2022-10-28T04:05:23.535Z,18.21
2022-10-28T04:07:49.913Z,18.20
2022-10-28T04:10:16.350Z,18.20
2022-10-28T04:12:42.726Z,18.18
2022-10-28T04:15:09.241Z,18.17
2022-10-28T04:17:35.659Z,18.16
2022-10-28T04:20:01.987Z,18.14
2022-10-28T04:22:28.332Z,18.14
2022-10-28T04:24:54.642Z,18.12
2022-10-28T04:27:21.524Z,18.11
2022-10-28T04:29:47.859Z,18.08
2022-10-28T04:32:14.195Z,18.07
2022-10-28T04:34:40.574Z,18.06
2022-10-28T04:37:06.940Z,18.03
2022-10-28T04:39:33.271Z,18.00
2022-10-28T04:41:59.686Z,17.97
2022-10-28T04:44:26.088Z,17.94
2022-10-28T04:46:52.530Z,17.92
2022-10-28T04:49:19.060Z,17.90
2022-10-28T04:54:16.771Z,17.88
2022-10-28T04:56:43.111Z,17.86
2022-10-28T04:59:09.451Z,17.84
2022-10-28T05:01:36.225Z,17.84
2022-10-28T05:04:02.724Z,17.81
2022-10-28T05:06:29.179Z,17.80
2022-10-28T05:08:56.131Z,17.79
2022-10-28T05:11:22.766Z,17.77
2022-10-28T05:13:49.190Z,17.75
2022-10-28T05:16:15.635Z,17.73
2022-10-28T05:18:42.058Z,17.69
2022-10-28T05:21:08.486Z,17.67
2022-10-28T05:23:35.016Z,17.64
2022-10-28T05:26:01.380Z,17.63
2022-10-28T05:28:27.919Z,17.60
2022-10-28T05:30:54.423Z,17.57
2022-10-28T05:33:20.802Z,17.54
2022-10-28T05:35:47.228Z,17.52
2022-10-28T05:38:13.614Z,17.49
2022-10-28T05:40:39.963Z,17.47
2022-10-28T05:43:06.434Z,17.43
2022-10-28T05:45:32.890Z,17.41
2022-10-28T05:47:59.459Z,17.38
2022-10-28T05:50:26.180Z,17.34
2022-10-28T05:52:54.952Z,17.34
2022-10-28T05:55:23.542Z,17.29
2022-10-28T05:57:51.711Z,17.27
2022-10-28T06:00:20.891Z,17.24
2022-10-28T06:02:47.216Z,17.22
2022-10-28T06:05:14.023Z,17.21
2022-10-28T06:07:41.527Z,17.18
2022-10-28T06:10:09.487Z,17.17
2022-10-28T06:12:34.684Z,17.17
2022-10-28T06:15:01.484Z,17.16
2022-10-28T06:17:27.811Z,17.15
2022-10-28T06:19:54.142Z,17.16
2022-10-28T06:22:21.601Z,17.16
2022-10-28T06:24:47.957Z,17.17
2022-10-28T06:27:14.327Z,17.18
2022-10-28T06:29:40.740Z,17.19
2022-10-28T06:32:10.285Z,17.22
2022-10-28T06:34:37.734Z,17.22
2022-10-28T06:37:05.577Z,17.24
2022-10-28T06:39:32.650Z,17.27
2022-10-28T06:41:59.186Z,17.29
2022-10-28T06:44:25.682Z,17.30
2022-10-28T06:46:53.520Z,17.32
2022-10-28T06:49:19.858Z,17.34
2022-10-28T06:51:46.272Z,17.37
2022-10-28T06:54:12.590Z,17.38
2022-10-28T06:56:38.927Z,17.40
2022-10-28T06:59:05.244Z,17.42
2022-10-28T07:01:31.657Z,17.44
2022-10-28T07:03:58.115Z,17.45
2022-10-28T07:06:24.504Z,17.47
2022-10-28T07:08:51.558Z,17.47
2022-10-28T07:11:18.980Z,17.49
2022-10-28T07:13:48.118Z,17.52
2022-10-28T07:16:15.483Z,17.54
2022-10-28T07:18:41.929Z,17.58
2022-10-28T07:21:08.254Z,17.62
2022-10-28T07:23:34.922Z,17.67
2022-10-28T07:26:01.305Z,17.72
2022-10-28T07:28:28.218Z,17.79
2022-10-28T07:30:54.892Z,17.85
2022-10-28T07:33:21.239Z,17.92
2022-10-28T07:35:47.669Z,18.00
2022-10-28T07:38:14.323Z,18.08
2022-10-28T07:40:40.674Z,18.16
2022-10-28T07:43:07.197Z,18.23
2022-10-28T07:45:34.666Z,18.30
2022-10-28T07:48:01.034Z,18.37
2022-10-28T07:50:27.450Z,18.46
2022-10-28T07:52:54.025Z,18.52
2022-10-28T07:55:21.554Z,18.59
2022-10-28T07:57:48.346Z,18.66
2022-10-28T08:00:15.166Z,18.74
2022-10-28T08:02:41.976Z,18.80
2022-10-28T08:05:08.472Z,18.88
2022-10-28T08:07:37.777Z,18.97
2022-10-28T08:10:06.359Z,19.05
2022-10-28T08:12:32.752Z,19.14
2022-10-28T08:14:59.081Z,19.21
2022-10-28T08:17:25.433Z,19.29
2022-10-28T08:19:51.751Z,19.37
2022-10-28T08:22:18.495Z,19.45
2022-10-28T08:24:44.821Z,19.52
2022-10-28T08:27:11.320Z,19.59
2022-10-28T08:29:37.778Z,19.67
2022-10-28T08:32:04.186Z,19.74
2022-10-28T08:34:31.268Z,19.81
2022-10-28T08:36:57.842Z,19.88
2022-10-28T08:39:24.412Z,19.94
2022-10-28T08:41:55.324Z,20.04
2022-10-28T08:44:33.974Z,20.10
2022-10-28T08:47:29.800Z,20.21
2022-10-28T08:50:03.239Z,20.29
2022-10-28T08:52:46.061Z,20.38
2022-10-28T08:55:19.226Z,20.46
2022-10-28T08:58:17.575Z,20.55
2022-10-28T09:00:50.805Z,20.63
2022-10-28T09:03:39.227Z,20.73
2022-10-28T09:06:08.481Z,20.80
2022-10-28T09:08:39.327Z,20.90
2022-10-28T09:11:48.183Z,21.00
2022-10-28T09:14:29.026Z,21.08
2022-10-28T09:17:09.682Z,21.18
2022-10-28T09:19:49.721Z,21.29
2022-10-28T09:22:56.829Z,21.39
2022-10-28T09:25:32.544Z,21.48
2022-10-28T09:28:07.724Z,21.59
2022-10-28T09:31:00.781Z,21.66
2022-10-28T09:33:42.328Z,21.75
2022-10-28T09:36:18.138Z,21.86
2022-10-28T09:38:45.519Z,21.94
2022-10-28T09:41:25.449Z,22.05
2022-10-28T09:44:12.978Z,22.16
2022-10-28T09:46:39.964Z,22.24
2022-10-28T09:49:30.979Z,22.38
2022-10-28T09:52:05.374Z,22.50
2022-10-28T09:54:37.952Z,22.62
2022-10-28T09:57:04.907Z,22.75
2022-10-28T09:59:31.812Z,22.89
2022-10-28T10:01:58.427Z,23.03
2022-10-28T10:04:26.895Z,23.15
2022-10-28T10:07:16.773Z,23.32
2022-10-28T10:09:44.192Z,23.42
2022-10-28T10:12:12.423Z,23.54
2022-10-28T10:14:44.436Z,23.66
2022-10-28T10:17:24.510Z,23.77
2022-10-28T10:20:01.618Z,23.87
2022-10-28T10:22:39.568Z,23.95
2022-10-28T10:25:17.921Z,24.01
2022-10-28T10:27:58.916Z,24.05
2022-10-28T10:30:31.221Z,24.08
2022-10-28T10:32:58.219Z,24.10
2022-10-28T10:35:33.160Z,24.14
2022-10-28T10:38:01.957Z,24.17
2022-10-28T10:40:34.434Z,24.21
2022-10-28T10:43:31.858Z,24.24
2022-10-28T10:46:12.918Z,24.28
2022-10-28T10:48:39.590Z,24.32
2022-10-28T10:51:24.845Z,24.38
2022-10-28T10:53:55.288Z,24.41
2022-10-28T10:56:30.721Z,24.47
2022-10-28T10:59:01.418Z,24.52
2022-10-28T11:01:34.419Z,24.59
2022-10-28T11:04:03.478Z,24.64
2022-10-28T11:06:32.827Z,24.70
2022-10-28T11:09:23.085Z,24.78
2022-10-28T11:11:49.427Z,24.85
2022-10-28T11:14:15.696Z,24.94
2022-10-28T11:16:49.445Z,25.04
2022-10-28T11:19:27.784Z,25.13
2022-10-28T11:22:23.387Z,25.23
2022-10-28T11:25:29.741Z,25.30
2022-10-28T11:28:11.204Z,25.38
2022-10-28T11:30:58.600Z,25.40
2022-10-28T11:33:43.760Z,25.45
2022-10-28T11:36:23.021Z,25.48
2022-10-28T11:38:58.188Z,25.48
2022-10-28T11:41:40.157Z,25.51
2022-10-28T11:44:23.538Z,25.52
2022-10-28T11:47:19.792Z,25.55
2022-10-28T11:50:17.874Z,25.58
2022-10-28T11:53:21.314Z,25.61
2022-10-28T11:56:03.511Z,25.67
2022-10-28T11:58:54.067Z,25.71
2022-10-28T12:01:50.527Z,25.76
2022-10-28T12:04:28.501Z,25.82
2022-10-28T12:07:08.542Z,25.88
2022-10-28T12:09:41.764Z,25.94
2022-10-28T12:12:23.503Z,25.98
2022-10-28T12:15:17.086Z,26.03
2022-10-28T12:17:59.786Z,26.10
2022-10-28T12:20:57.679Z,26.15
2022-10-28T12:23:25.633Z,26.19
2022-10-28T12:25:57.345Z,26.25
2022-10-28T12:28:33.453Z,26.30
2022-10-28T12:31:01.210Z,26.34
2022-10-28T12:33:36.967Z,26.40
2022-10-28T12:36:03.269Z,26.43
2022-10-28T12:38:40.422Z,26.48
2022-10-28T12:41:20.230Z,26.52
2022-10-28T12:43:58.561Z,26.56
2022-10-28T12:49:57.621Z,26.60
2022-10-28T12:52:51.584Z,26.60
2022-10-28T12:55:29.087Z,26.62
2022-10-28T12:58:02.862Z,26.62
2022-10-28T13:00:37.076Z,26.63
2022-10-28T13:03:11.548Z,26.64
2022-10-28T13:05:55.787Z,26.64
2022-10-28T13:08:48.942Z,26.65
2022-10-28T13:11:40.452Z,26.67
2022-10-28T13:14:28.992Z,26.68
2022-10-28T13:17:17.941Z,26.71
2022-10-28T13:19:58.844Z,26.73
2022-10-28T13:22:43.279Z,26.71
2022-10-28T13:25:40.489Z,26.70
2022-10-28T13:28:14.304Z,26.68
2022-10-28T13:30:53.107Z,26.65
2022-10-28T13:33:24.796Z,26.64
2022-10-28T13:38:26.708Z,26.61
2022-10-28T13:43:50.861Z,26.61
2022-10-28T13:46:54.856Z,26.61
2022-10-28T13:49:28.200Z,26.60
2022-10-28T13:52:06.419Z,26.58
2022-10-28T13:54:38.877Z,26.58
2022-10-28T13:57:12.612Z,26.57
2022-10-28T13:59:51.060Z,26.57
2022-10-28T14:02:35.282Z,26.56
2022-10-28T14:05:09.359Z,26.56
2022-10-28T14:07:40.757Z,26.54
2022-10-28T14:10:20.594Z,26.53
2022-10-28T14:12:51.760Z,26.52
2022-10-28T14:15:25.034Z,26.49
2022-10-28T14:18:04.835Z,26.48
2022-10-28T14:20:48.360Z,26.46
2022-10-28T14:23:36.351Z,26.44
2022-10-28T14:26:04.834Z,26.41
2022-10-28T14:28:31.113Z,26.38
2022-10-28T14:31:12.361Z,26.38
2022-10-28T14:33:49.692Z,26.35
2022-10-28T14:36:19.194Z,26.32
2022-10-28T14:39:30.370Z,26.31
2022-10-28T14:42:00.869Z,26.27
2022-10-28T14:44:56.273Z,26.26
2022-10-28T14:47:39.629Z,26.24
2022-10-28T14:50:14.457Z,26.20
2022-10-28T14:52:43.379Z,26.17
2022-10-28T14:55:22.107Z,26.12
2022-10-28T14:57:48.429Z,26.08
2022-10-28T15:00:19.320Z,26.04
2022-10-28T15:02:46.812Z,25.99
2022-10-28T15:05:22.057Z,25.95
2022-10-28T15:07:48.920Z,25.89
2022-10-28T15:10:22.593Z,25.84
2022-10-28T15:12:50.463Z,25.79
2022-10-28T15:15:19.554Z,25.74
2022-10-28T15:17:45.924Z,25.69
2022-10-28T15:20:28.298Z,25.63
2022-10-28T15:23:11.467Z,25.58
2022-10-28T15:25:37.907Z,25.51
2022-10-28T15:28:04.483Z,25.45
2022-10-28T15:30:31.213Z,25.37
2022-10-28T15:33:18.763Z,25.31
2022-10-28T15:35:46.167Z,25.23
2022-10-28T15:38:34.365Z,25.17
2022-10-28T15:41:00.840Z,25.09
2022-10-28T15:43:31.407Z,25.03
2022-10-28T15:46:10.714Z,24.96
2022-10-28T15:48:37.153Z,24.89
2022-10-28T15:51:16.766Z,24.83
2022-10-28T15:53:44.761Z,24.77
2022-10-28T15:56:13.874Z,24.72
2022-10-28T15:58:45.953Z,24.66
2022-10-28T16:01:38.012Z,24.60
2022-10-28T16:04:23.004Z,24.53
2022-10-28T16:06:55.549Z,24.47
2022-10-28T16:09:34.571Z,24.41
2022-10-28T16:12:04.632Z,24.36
2022-10-28T16:14:40.154Z,24.30
2022-10-28T16:17:18.669Z,24.24
2022-10-28T16:19:55.858Z,24.20
2022-10-28T16:22:24.381Z,24.15
2022-10-28T16:24:53.086Z,24.10
2022-10-28T16:27:23.297Z,24.07
2022-10-28T16:29:50.412Z,24.00
2022-10-28T16:32:19.585Z,23.97
2022-10-28T16:34:45.933Z,23.91
2022-10-28T16:37:25.427Z,23.88
2022-10-28T16:39:52.383Z,23.84
2022-10-28T16:42:19.846Z,23.79
2022-10-28T16:44:46.748Z,23.76
2022-10-28T16:47:15.677Z,23.72
2022-10-28T16:49:42.470Z,23.69
2022-10-28T16:52:20.521Z,23.66
2022-10-28T16:54:47.244Z,23.62
2022-10-28T16:57:13.700Z,23.58
2022-10-28T16:59:40.137Z,23.54
2022-10-28T17:02:21.613Z,23.53
2022-10-28T17:04:48.084Z,23.48
2022-10-28T17:07:16.282Z,23.45
2022-10-28T17:09:43.205Z,23.42
2022-10-28T17:12:14.631Z,23.41
2022-10-28T17:14:41.099Z,23.37
2022-10-28T17:17:07.928Z,23.34
2022-10-28T17:19:34.353Z,23.30
2022-10-28T17:22:00.689Z,23.27
2022-10-28T17:24:27.037Z,23.24
2022-10-28T17:26:53.436Z,23.21
2022-10-28T17:29:19.813Z,23.18
2022-10-28T17:31:46.138Z,23.15
2022-10-28T17:34:12.629Z,23.11
2022-10-28T17:36:39.134Z,23.08
2022-10-28T17:39:05.541Z,23.04
2022-10-28T17:41:32.038Z,23.00
2022-10-28T17:43:58.382Z,22.96
2022-10-28T17:46:24.706Z,22.92
2022-10-28T17:48:51.252Z,22.87
2022-10-28T17:51:18.447Z,22.84
2022-10-28T17:53:44.812Z,22.78
2022-10-28T17:56:11.240Z,22.74
2022-10-28T17:58:37.644Z,22.70
2022-10-28T18:01:09.274Z,22.66
2022-10-28T18:03:39.005Z,22.59
2022-10-28T18:06:09.951Z,22.56
2022-10-28T18:08:38.521Z,22.52
2022-10-28T18:11:06.326Z,22.46
2022-10-28T18:13:34.758Z,22.40
2022-10-28T18:16:06.579Z,22.37
2022-10-28T18:18:37.428Z,22.31
2022-10-28T18:21:11.565Z,22.25
2022-10-28T18:23:38.277Z,22.20
2022-10-28T18:26:13.949Z,22.16
2022-10-28T18:28:42.007Z,22.11
2022-10-28T18:31:15.489Z,22.08
2022-10-28T18:33:42.899Z,22.03
2022-10-28T18:36:12.190Z,22.00
2022-10-28T18:38:39.101Z,21.94
2022-10-28T18:41:12.581Z,21.91
2022-10-28T18:43:39.705Z,21.87
2022-10-28T18:46:06.667Z,21.85
2022-10-28T18:48:33.207Z,21.82
2022-10-28T18:51:02.019Z,21.79
2022-10-28T18:53:28.338Z,21.77
2022-10-28T18:55:59.817Z,21.74
2022-10-28T18:58:26.936Z,21.70
2022-10-28T19:00:53.314Z,21.68
2022-10-28T19:03:22.032Z,21.64
2022-10-28T19:05:49.047Z,21.59
2022-10-28T19:08:15.721Z,21.56
2022-10-28T19:10:42.377Z,21.53
2022-10-28T19:13:08.740Z,21.50
2022-10-28T19:15:40.036Z,21.44
2022-10-28T19:18:06.410Z,21.40
2022-10-28T19:20:32.804Z,21.36
2022-10-28T19:22:59.503Z,21.32
2022-10-28T19:25:25.961Z,21.29
2022-10-28T19:27:52.318Z,21.24
2022-10-28T19:30:18.645Z,21.21
2022-10-28T19:32:45.288Z,21.16
2022-10-28T19:35:11.623Z,21.12
2022-10-28T19:37:37.975Z,21.08
2022-10-28T19:40:04.683Z,21.03
2022-10-28T19:42:31.069Z,20.95
2022-10-28T19:44:57.570Z,20.88
2022-10-28T19:47:23.952Z,20.82
2022-10-28T19:49:50.323Z,20.76
2022-10-28T19:52:16.691Z,20.70
2022-10-28T19:54:43.059Z,20.66
2022-10-28T19:57:09.579Z,20.62
2022-10-28T19:59:35.968Z,20.59
2022-10-28T20:02:02.385Z,20.57
2022-10-28T20:04:28.785Z,20.54
2022-10-28T20:06:57.507Z,20.53
2022-10-28T20:09:28.632Z,20.52
2022-10-28T20:11:55.333Z,20.51
2022-10-28T20:14:21.793Z,20.50
2022-10-28T20:16:49.141Z,20.50
2022-10-28T20:19:15.661Z,20.49
2022-10-28T20:21:42.001Z,20.47
2022-10-28T20:24:08.728Z,20.47
2022-10-28T20:26:36.953Z,20.45
2022-10-28T20:29:03.965Z,20.43
2022-10-28T20:31:32.190Z,20.42
2022-10-28T20:34:01.640Z,20.42
2022-10-28T20:36:28.980Z,20.43
2022-10-28T20:39:04.434Z,20.43
2022-10-28T20:41:35.773Z,20.44
2022-10-28T20:44:04.978Z,20.43
2022-10-28T20:46:31.686Z,20.43
2022-10-28T20:49:00.578Z,20.44
2022-10-28T20:51:29.109Z,20.46
2022-10-28T20:53:55.966Z,20.47
2022-10-28T20:56:27.605Z,20.48
2022-10-28T20:58:55.604Z,20.49
2022-10-28T21:01:24.863Z,20.51
2022-10-28T21:03:56.879Z,20.52
2022-10-28T21:06:24.305Z,20.51
2022-10-28T21:08:51.073Z,20.50
2022-10-28T21:11:18.229Z,20.49
2022-10-28T21:13:51.744Z,20.49
2022-10-28T21:16:18.640Z,20.48
2022-10-28T21:18:44.996Z,20.49
2022-10-28T21:21:11.728Z,20.49
2022-10-28T21:23:38.139Z,20.49
2022-10-28T21:26:06.088Z,20.49
2022-10-28T21:28:34.033Z,20.50
2022-10-28T21:31:07.766Z,20.49
2022-10-28T21:33:35.859Z,20.47
2022-10-28T21:36:05.493Z,20.44
2022-10-28T21:38:31.918Z,20.39
2022-10-28T21:41:06.386Z,20.35
2022-10-28T21:43:35.152Z,20.30
2022-10-28T21:46:01.833Z,20.25
2022-10-28T21:48:29.206Z,20.17
2022-10-28T21:51:00.546Z,20.13
2022-10-28T21:53:30.645Z,20.05
2022-10-28T21:56:10.074Z,20.01
2022-10-28T21:58:39.914Z,19.94
2022-10-28T22:01:12.107Z,19.89
2022-10-28T22:03:38.820Z,19.83
2022-10-28T22:06:05.920Z,19.78
2022-10-28T22:08:33.481Z,19.72
2022-10-28T22:11:01.766Z,19.66
2022-10-28T22:13:28.221Z,19.59
2022-10-28T22:16:06.545Z,19.54
2022-10-28T22:18:35.749Z,19.47
2022-10-28T22:21:13.732Z,19.42
2022-10-28T22:23:40.774Z,19.33
2022-10-28T22:26:10.209Z,19.27
2022-10-28T22:28:37.312Z,19.21
2022-10-28T22:31:07.174Z,19.16
2022-10-28T22:33:33.804Z,19.10
2022-10-28T22:36:02.745Z,19.04
2022-10-28T22:38:29.282Z,18.98
2022-10-28T22:41:07.317Z,18.94
2022-10-28T22:43:34.052Z,18.89
2022-10-28T22:46:01.269Z,18.84
2022-10-28T22:48:27.775Z,18.82
2022-10-28T22:50:54.538Z,18.79
2022-10-28T22:53:21.093Z,18.77
2022-10-28T22:55:47.761Z,18.78
2022-10-28T22:58:15.799Z,18.79
2022-10-28T23:00:42.809Z,18.79
2022-10-28T23:03:09.282Z,18.81
2022-10-28T23:05:36.034Z,18.83
2022-10-28T23:08:02.709Z,18.84
2022-10-28T23:10:29.624Z,18.86
2022-10-28T23:12:59.865Z,18.88
2022-10-28T23:15:26.710Z,18.89
2022-10-28T23:17:53.584Z,18.88
2022-10-28T23:20:21.857Z,18.91
2022-10-28T23:22:48.384Z,18.91
2022-10-28T23:25:15.271Z,18.91
2022-10-28T23:27:43.196Z,18.90
2022-10-28T23:30:12.071Z,18.88
2022-10-28T23:32:39.173Z,18.86
2022-10-28T23:35:07.129Z,18.82
2022-10-28T23:37:33.839Z,18.79
2022-10-28T23:40:00.213Z,18.75
2022-10-28T23:42:26.609Z,18.72
2022-10-28T23:44:53.003Z,18.69
2022-10-28T23:47:19.382Z,18.64
2022-10-28T23:49:45.787Z,18.60
2022-10-28T23:52:12.232Z,18.56
2022-10-28T23:54:38.685Z,18.51
2022-10-28T23:57:05.025Z,18.45
2022-10-28T23:59:31.359Z,18.40
